Time;durP1;ratioP1;P1;durP2;ratioP2;P2;SDS_P1;SDS_P2;PMS_P1;PMS_P2;Temp;Humidity;BMP_temperature;BMP_pressure;BME280_temperature;BME280_humidity;BME280_pressure;Samples;Min_cycle;Max_cycle;Signal;HPM_P1;HPM_P2
2022/05/12 00:00:22;;;;;;;5.97;2.72;;;17.50;99.90;;;;;;5071253;28;20689;-52
2022/05/12 00:02:50;;;;;;;3.92;2.38;;;17.50;99.90;;;;;;5071171;28;20250;-52
2022/05/12 00:05:21;;;;;;;4.05;2.80;;;17.40;99.90;;;;;;5071615;28;20288;-52
2022/05/12 00:07:50;;;;;;;7.45;2.75;;;17.40;99.90;;;;;;5071710;28;20767;-53
2022/05/12 00:10:21;;;;;;;5.45;2.47;;;17.40;99.90;;;;;;5071297;28;20201;-52
2022/05/12 00:12:49;;;;;;;5.00;2.70;;;17.40;99.90;;;;;;5069740;28;20256;-53
2022/05/12 00:15:24;;;;;;;4.90;2.67;;;17.40;99.90;;;;;;5066450;28;20287;-53
2022/05/12 00:17:52;;;;;;;4.63;2.28;;;17.40;99.90;;;;;;5075786;28;20265;-53
2022/05/12 00:20:23;;;;;;;4.10;2.67;;;17.30;99.90;;;;;;5094567;28;20543;-52
2022/05/12 00:22:52;;;;;;;4.68;2.60;;;17.30;99.90;;;;;;5095886;28;20251;-53
2022/05/12 00:25:23;;;;;;;5.88;2.88;;;17.20;99.90;;;;;;5062954;28;20198;-52
2022/05/12 00:27:51;;;;;;;4.88;2.50;;;17.10;99.90;;;;;;5051311;28;20230;-53
2022/05/12 00:30:19;;;;;;;3.78;2.50;;;17.10;99.90;;;;;;5051331;28;20686;-53
2022/05/12 00:32:48;;;;;;;4.75;2.60;;;17.10;99.90;;;;;;5050162;28;20249;-51
2022/05/12 00:35:17;;;;;;;5.10;2.92;;;17.20;99.90;;;;;;5051672;28;20209;-52
2022/05/12 00:37:46;;;;;;;5.55;2.60;;;17.30;99.90;;;;;;5051336;28;20253;-53
2022/05/12 00:40:16;;;;;;;7.20;2.72;;;17.30;99.90;;;;;;5051295;28;20263;-52
2022/05/12 00:42:55;;;;;;;5.95;2.85;;;17.30;99.90;;;;;;5051113;28;20336;-52
2022/05/12 00:45:24;;;;;;;7.15;2.75;;;17.40;99.90;;;;;;5051259;28;20259;-52
2022/05/12 00:47:52;;;;;;;4.32;2.72;;;17.40;99.90;;;;;;5051520;28;20260;-52
2022/05/12 00:50:22;;;;;;;9.10;2.70;;;17.50;99.90;;;;;;5063905;28;20312;-51
2022/05/12 00:52:52;;;;;;;5.03;2.85;;;17.40;99.90;;;;;;5071142;28;20217;-52
2022/05/12 00:55:25;;;;;;;7.30;2.90;;;17.50;99.90;;;;;;5070245;28;20200;-52
2022/05/12 00:57:56;;;;;;;3.58;2.72;;;17.50;99.90;;;;;;5071189;28;20259;-53
2022/05/12 01:00:25;;;;;;;3.70;2.80;;;17.60;99.90;;;;;;5071173;28;20208;-53
2022/05/12 01:02:57;;;;;;;5.88;2.83;;;17.60;99.90;;;;;;5070939;28;20230;-51
2022/05/12 01:05:27;;;;;;;5.97;3.20;;;17.60;99.90;;;;;;5071425;28;20212;-52
2022/05/12 01:07:57;;;;;;;5.53;2.95;;;17.60;99.90;;;;;;5070971;28;20294;-51
2022/05/12 01:10:27;;;;;;;3.88;2.95;;;17.60;99.90;;;;;;5071429;28;20291;-53
2022/05/12 01:12:55;;;;;;;7.57;2.88;;;17.70;99.90;;;;;;5070223;28;21054;-52
2022/05/12 01:15:25;;;;;;;10.48;3.88;;;17.80;99.90;;;;;;5071250;28;20244;-53
2022/05/12 01:18:03;;;;;;;10.93;4.45;;;17.80;99.90;;;;;;5070643;28;20228;-52
2022/05/12 01:20:31;;;;;;;8.15;4.40;;;17.80;99.90;;;;;;5070824;28;20974;-52
2022/05/12 01:23:05;;;;;;;12.70;4.07;;;17.80;99.90;;;;;;5070583;28;20236;-53
2022/05/12 01:25:35;;;;;;;11.60;4.38;;;17.80;99.90;;;;;;5062151;28;20208;-52
2022/05/12 01:28:04;;;;;;;10.95;4.50;;;17.80;99.90;;;;;;5050575;28;20317;-53
2022/05/12 01:30:32;;;;;;;13.65;4.15;;;17.80;99.90;;;;;;5050640;28;20241;-52
2022/05/12 01:33:00;;;;;;;9.55;3.78;;;17.80;99.90;;;;;;5050014;28;20687;-53
2022/05/12 01:35:28;;;;;;;7.22;3.08;;;17.80;99.90;;;;;;5050402;28;20205;-52
2022/05/12 01:37:56;;;;;;;8.73;3.42;;;17.80;99.90;;;;;;5053545;28;20733;-52
2022/05/12 01:40:24;;;;;;;7.88;3.28;;;17.70;99.90;;;;;;5054120;28;20201;-53
2022/05/12 01:42:55;;;;;;;13.45;3.88;;;17.60;99.90;;;;;;5054019;28;20244;-53
2022/05/12 01:45:24;;;;;;;8.15;3.20;;;17.70;99.90;;;;;;5054142;28;20217;-52
2022/05/12 01:47:52;;;;;;;6.90;3.10;;;17.60;99.90;;;;;;5054709;28;20744;-52
2022/05/12 01:50:21;;;;;;;3.85;2.67;;;17.50;99.90;;;;;;5067010;28;20201;-56
2022/05/12 01:52:50;;;;;;;5.97;2.80;;;17.50;99.90;;;;;;5073644;28;20201;-53
2022/05/12 01:55:20;;;;;;;4.82;2.90;;;17.50;99.90;;;;;;5071998;28;20213;-53
2022/05/12 01:57:48;;;;;;;8.32;2.78;;;17.50;99.90;;;;;;5073781;28;20263;-53
2022/05/12 02:00:21;;;;;;;6.38;3.08;;;17.50;99.90;;;;;;5073136;28;20209;-53
2022/05/12 02:02:50;;;;;;;6.32;3.17;;;17.50;99.90;;;;;;5065302;28;20201;-53
2022/05/12 02:05:18;;;;;;;7.72;2.80;;;17.50;99.90;;;;;;5053683;28;20209;-53
2022/05/12 02:07:48;;;;;;;5.68;3.05;;;17.50;99.90;;;;;;5053681;28;20222;-53
2022/05/12 02:10:20;;;;;;;6.20;2.70;;;17.40;99.90;;;;;;5069433;28;20201;-53
2022/05/12 02:12:48;;;;;;;8.85;2.88;;;17.40;99.90;;;;;;5073499;28;20283;-53
2022/05/12 02:15:17;;;;;;;9.40;2.90;;;17.30;99.90;;;;;;5073941;28;20702;-53
2022/05/12 02:17:46;;;;;;;10.45;2.50;;;17.30;99.90;;;;;;5073753;28;20286;-52
2022/05/12 02:20:14;;;;;;;7.57;2.65;;;17.20;99.90;;;;;;5073414;28;20687;-53
2022/05/12 02:22:43;;;;;;;3.83;2.80;;;17.20;99.90;;;;;;5073267;28;20224;-53
2022/05/12 02:25:12;;;;;;;3.60;2.33;;;17.10;99.90;;;;;;5060089;28;20260;-53
2022/05/12 02:27:45;;;;;;;7.72;2.85;;;17.10;99.90;;;;;;5053772;28;20198;-53
2022/05/12 02:30:20;;;;;;;3.70;2.50;;;17.00;99.90;;;;;;5053237;28;20815;-52
2022/05/12 02:32:49;;;;;;;4.38;2.40;;;17.00;99.90;;;;;;5052108;28;20209;-53
2022/05/12 02:35:18;;;;;;;4.45;2.40;;;17.00;99.90;;;;;;5052952;28;20210;-52
2022/05/12 02:37:47;;;;;;;6.35;1.98;;;16.90;99.90;;;;;;5052397;28;20225;-53
2022/05/12 02:40:18;;;;;;;4.20;2.40;;;17.00;99.90;;;;;;5053398;28;20289;-52
2022/05/12 02:42:46;;;;;;;3.67;2.33;;;16.90;99.90;;;;;;5052791;28;20232;-51
2022/05/12 02:45:15;;;;;;;4.72;2.50;;;16.90;99.90;;;;;;5053678;28;20237;-52
2022/05/12 02:47:44;;;;;;;4.43;2.28;;;16.90;99.90;;;;;;5053021;28;20244;-53
2022/05/12 02:50:16;;;;;;;3.78;2.13;;;16.90;99.90;;;;;;5064611;28;20621;-53
2022/05/12 02:52:44;;;;;;;5.85;2.75;;;16.90;99.90;;;;;;5072884;28;20205;-53
2022/05/12 02:55:13;;;;;;;5.35;2.38;;;16.90;99.90;;;;;;5071749;28;20244;-53
2022/05/12 02:57:43;;;;;;;3.85;2.83;;;16.90;99.90;;;;;;5072390;28;20619;-51
2022/05/12 03:00:17;;;;;;;5.47;2.88;;;16.90;99.90;;;;;;5071842;28;20581;-53
2022/05/12 03:02:46;;;;;;;6.82;3.50;;;16.90;99.90;;;;;;5072377;28;20292;-52
2022/05/12 03:05:16;;;;;;;4.88;3.20;;;16.90;99.90;;;;;;5072612;28;20213;-53
2022/05/12 03:07:44;;;;;;;4.35;3.40;;;16.80;99.90;;;;;;5070463;28;20270;-52
2022/05/12 03:10:13;;;;;;;5.18;3.58;;;16.80;99.90;;;;;;5069927;28;20246;-53
2022/05/12 03:12:42;;;;;;;5.10;3.40;;;16.70;99.90;;;;;;5072676;28;20258;-52
2022/05/12 03:15:11;;;;;;;4.57;3.50;;;16.60;99.90;;;;;;5072421;28;20261;-53
2022/05/12 03:17:42;;;;;;;4.15;3.45;;;16.50;99.90;;;;;;5072485;28;20740;-53
2022/05/12 03:20:13;;;;;;;4.18;3.40;;;16.50;99.90;;;;;;5071939;28;20208;-53
2022/05/12 03:22:43;;;;;;;6.68;3.85;;;16.40;99.90;;;;;;5072323;28;20209;-52
2022/05/12 03:25:13;;;;;;;5.05;3.40;;;16.30;99.90;;;;;;5058879;28;20644;-53
2022/05/12 03:27:41;;;;;;;6.70;3.50;;;16.30;99.90;;;;;;5052154;28;20248;-53
2022/05/12 03:30:14;;;;;;;5.85;3.80;;;16.20;99.90;;;;;;5052016;28;20275;-53
2022/05/12 03:32:42;;;;;;;4.55;3.60;;;16.20;99.90;;;;;;5051771;28;20205;-53
2022/05/12 03:35:11;;;;;;;7.78;3.40;;;16.20;99.90;;;;;;5053588;28;20201;-53
2022/05/12 03:37:41;;;;;;;5.20;3.28;;;16.30;99.90;;;;;;5071626;28;20229;-53
2022/05/12 03:40:13;;;;;;;5.10;3.60;;;16.20;99.90;;;;;;5072034;28;20209;-53
2022/05/12 03:42:42;;;;;;;4.50;3.40;;;16.20;99.90;;;;;;5071283;28;20208;-53
2022/05/12 03:45:10;;;;;;;6.03;3.80;;;16.20;99.90;;;;;;5070858;28;20575;-53
2022/05/12 03:47:41;;;;;;;5.40;3.67;;;16.10;99.90;;;;;;5071655;28;20205;-52
2022/05/12 03:50:12;;;;;;;4.40;3.78;;;16.10;99.90;;;;;;5071460;28;20193;-52
2022/05/12 03:52:46;;;;;;;5.57;3.70;;;16.10;99.90;;;;;;5071804;28;20204;-52
2022/05/12 03:55:19;;;;;;;7.40;3.70;;;16.00;99.90;;;;;;5071445;28;20204;-53
2022/05/12 03:57:49;;;;;;;5.80;3.00;;;16.00;99.90;;;;;;5071733;28;20232;-53
2022/05/12 04:00:23;;;;;;;7.18;3.00;;;15.90;99.90;;;;;;5071281;28;20212;-52
2022/05/12 04:02:52;;;;;;;5.47;2.60;;;15.80;99.90;;;;;;5071622;28;20208;-53
2022/05/12 04:05:20;;;;;;;4.72;2.83;;;15.80;99.90;;;;;;5071665;28;20303;-53
2022/05/12 04:07:51;;;;;;;4.57;2.40;;;15.80;99.90;;;;;;5064882;28;20220;-52
2022/05/12 04:10:20;;;;;;;4.63;2.33;;;15.70;99.90;;;;;;5067450;28;20205;-53
2022/05/12 04:12:48;;;;;;;4.82;2.92;;;15.70;99.90;;;;;;5071279;28;20209;-53
2022/05/12 04:15:17;;;;;;;3.83;3.00;;;15.70;99.90;;;;;;5070661;28;20209;-53
2022/05/12 04:17:47;;;;;;;4.53;3.42;;;15.60;99.90;;;;;;5071757;28;20225;-53
2022/05/12 04:20:15;;;;;;;6.93;3.88;;;15.60;99.90;;;;;;5070708;28;20647;-51
2022/05/12 04:22:44;;;;;;;5.10;3.83;;;16.10;99.90;;;;;;5071573;28;20265;-53
2022/05/12 04:25:12;;;;;;;3.72;3.17;;;16.70;99.90;;;;;;5071332;28;20254;-51
2022/05/12 04:27:43;;;;;;;4.75;3.28;;;17.20;99.90;;;;;;5071864;28;20597;-52
2022/05/12 04:30:14;;;;;;;4.50;3.38;;;17.80;99.90;;;;;;5071778;28;20255;-52
2022/05/12 04:32:43;;;;;;;3.75;2.90;;;18.20;99.90;;;;;;5070829;28;20254;-52
2022/05/12 04:35:12;;;;;;;3.75;3.15;;;18.00;99.90;;;;;;5071483;28;20247;-53
2022/05/12 04:37:44;;;;;;;4.00;3.40;;;17.50;99.90;;;;;;5070837;28;20299;-52
2022/05/12 04:40:15;;;;;;;6.10;3.22;;;17.70;99.90;;;;;;5071473;28;20204;-52
2022/05/12 04:42:44;;;;;;;5.32;3.40;;;18.30;99.90;;;;;;5070508;28;20240;-53
2022/05/12 04:45:14;;;;;;;6.68;3.80;;;18.60;99.90;;;;;;5070789;28;20205;-53
2022/05/12 04:47:43;;;;;;;8.35;6.53;;;18.40;99.90;;;;;;5071159;28;20204;-52
2022/05/12 04:50:16;;;;;;;8.43;6.95;;;18.20;99.90;;;;;;5070887;28;20208;-51
2022/05/12 04:52:45;;;;;;;9.63;7.43;;;18.50;99.90;;;;;;5070792;28;20197;-53
2022/05/12 04:55:13;;;;;;;9.50;6.70;;;18.80;99.90;;;;;;5070453;28;20204;-52
2022/05/12 04:57:45;;;;;;;6.97;6.30;;;19.10;99.90;;;;;;5070337;28;20211;-53
2022/05/12 05:00:17;;;;;;;8.52;7.38;;;19.30;99.90;;;;;;5071216;28;20277;-53
2022/05/12 05:02:45;;;;;;;6.78;6.15;;;19.50;99.90;;;;;;5070783;28;20623;-52
2022/05/12 05:05:14;;;;;;;7.22;6.60;;;19.70;99.90;;;;;;5071129;28;20755;-52
2022/05/12 05:07:42;;;;;;;9.38;7.10;;;19.80;99.90;;;;;;5070779;28;20204;-53
2022/05/12 05:10:12;;;;;;;6.35;5.70;;;19.90;99.90;;;;;;5058388;28;20202;-52
2022/05/12 05:12:40;;;;;;;5.70;5.20;;;19.80;99.90;;;;;;5068751;28;20214;-52
2022/05/12 05:15:12;;;;;;;6.88;5.10;;;20.30;99.90;;;;;;5074726;28;20262;-52
2022/05/12 05:17:42;;;;;;;4.80;4.20;;;20.40;99.90;;;;;;5067377;28;20307;-53
2022/05/12 05:20:14;;;;;;;6.47;3.55;;;20.40;99.60;;;;;;5065451;28;20225;-52
2022/05/12 05:22:42;;;;;;;4.00;3.25;;;20.40;99.70;;;;;;5074030;28;20267;-53
2022/05/12 05:25:10;;;;;;;6.28;3.45;;;20.60;99.30;;;;;;5074762;28;20208;-52
2022/05/12 05:27:39;;;;;;;3.88;3.10;;;21.10;98.90;;;;;;5074469;28;20209;-52
2022/05/12 05:30:14;;;;;;;3.00;2.70;;;21.40;98.30;;;;;;5074199;28;20223;-52
2022/05/12 05:32:42;;;;;;;4.82;3.00;;;21.90;97.40;;;;;;5058059;28;20201;-53
2022/05/12 05:35:12;;;;;;;5.57;2.78;;;22.00;96.20;;;;;;5054189;28;20263;-53
2022/05/12 05:37:41;;;;;;;4.10;2.90;;;22.30;96.40;;;;;;5054013;28;20900;-53
2022/05/12 05:40:12;;;;;;;4.00;2.63;;;22.50;95.70;;;;;;5053909;28;20226;-53
2022/05/12 05:42:41;;;;;;;3.88;2.65;;;22.20;94.50;;;;;;5054053;28;20231;-52
2022/05/12 05:45:15;;;;;;;3.88;2.58;;;22.00;95.20;;;;;;5053469;28;20210;-53
2022/05/12 05:47:45;;;;;;;3.08;2.78;;;22.00;95.60;;;;;;5053713;28;20189;-54
2022/05/12 05:50:15;;;;;;;4.80;2.25;;;22.10;95.00;;;;;;5065456;28;20204;-52
2022/05/12 05:55:29;;;;;;;3.92;2.60;;;21.10;95.00;;;;;;5073724;28;20963;-53
2022/05/12 05:57:59;;;;;;;4.82;2.47;;;20.70;94.60;;;;;;5074029;28;20221;-51
2022/05/12 06:00:31;;;;;;;4.70;2.47;;;21.00;95.40;;;;;;5073855;28;20260;-52
2022/05/12 06:02:59;;;;;;;3.63;2.42;;;21.40;94.40;;;;;;5057101;28;20197;-53
2022/05/12 06:05:28;;;;;;;4.90;2.53;;;21.80;94.20;;;;;;5053765;28;20957;-53
2022/05/12 06:07:57;;;;;;;4.43;2.63;;;22.10;93.90;;;;;;5053878;28;20271;-53
2022/05/12 06:10:25;;;;;;;5.75;2.53;;;22.50;94.00;;;;;;5070180;28;20231;-52
2022/05/12 06:12:54;;;;;;;4.20;2.45;;;22.80;93.20;;;;;;5073010;28;20258;-53
2022/05/12 06:15:22;;;;;;;4.22;2.40;;;22.90;92.10;;;;;;5073732;28;20208;-53
2022/05/12 06:17:52;;;;;;;4.43;2.38;;;22.90;92.00;;;;;;5073700;28;20232;-53
2022/05/12 06:20:21;;;;;;;4.20;2.17;;;23.30;91.70;;;;;;5069961;28;20665;-53
2022/05/12 06:22:50;;;;;;;2.75;2.28;;;23.50;91.50;;;;;;5052994;28;20210;-53
2022/05/12 06:25:19;;;;;;;6.03;2.50;;;23.40;91.00;;;;;;5053698;28;20241;-52
2022/05/12 06:27:47;;;;;;;5.10;2.63;;;23.50;91.20;;;;;;5053725;28;20283;-53
2022/05/12 06:30:15;;;;;;;5.38;2.30;;;23.80;91.30;;;;;;5070197;28;20495;-53
2022/05/12 06:32:44;;;;;;;4.65;2.30;;;24.00;90.90;;;;;;5073331;28;20641;-53
2022/05/12 06:35:17;;;;;;;4.00;2.40;;;23.80;88.90;;;;;;5073501;28;20689;-52
2022/05/12 06:37:45;;;;;;;3.45;2.45;;;23.80;90.50;;;;;;5073468;28;20302;-53
2022/05/12 06:40:13;;;;;;;5.40;2.47;;;24.30;90.60;;;;;;5073735;28;20271;-53
2022/05/12 06:42:50;;;;;;;2.83;2.50;;;24.30;89.40;;;;;;5073348;28;20197;-53
2022/05/12 06:45:21;;;;;;;4.82;2.58;;;24.30;90.40;;;;;;5073482;28;20265;-53
2022/05/12 06:47:52;;;;;;;5.60;2.58;;;24.60;90.50;;;;;;5073543;28;20225;-53
2022/05/12 06:50:24;;;;;;;3.90;2.20;;;24.60;87.90;;;;;;5073156;28;20538;-53
2022/05/12 06:52:53;;;;;;;2.47;2.20;;;24.60;87.30;;;;;;5067656;28;20202;-52
2022/05/12 06:55:22;;;;;;;3.78;2.10;;;24.60;89.50;;;;;;5056546;28;20288;-53
2022/05/12 06:57:50;;;;;;;4.13;2.25;;;24.70;90.00;;;;;;5057109;28;20231;-52
2022/05/12 07:00:20;;;;;;;4.82;2.55;;;24.60;88.30;;;;;;5072871;28;20228;-52
2022/05/12 07:02:49;;;;;;;4.28;2.40;;;24.70;88.90;;;;;;5072515;28;20213;-52
2022/05/12 07:05:19;;;;;;;3.58;2.30;;;25.00;87.80;;;;;;5073022;28;20232;-53
2022/05/12 07:07:49;;;;;;;5.25;2.53;;;25.40;86.70;;;;;;5072299;28;20370;-52
2022/05/12 07:10:20;;;;;;;4.38;2.45;;;25.60;85.90;;;;;;5072822;28;20201;-53
2022/05/12 07:12:48;;;;;;;4.68;2.53;;;25.50;86.30;;;;;;5072647;28;20258;-52
2022/05/12 07:15:17;;;;;;;4.03;2.20;;;25.40;86.50;;;;;;5073038;28;20201;-53
2022/05/12 07:17:45;;;;;;;4.07;2.05;;;25.60;86.30;;;;;;5072500;28;20256;-53
2022/05/12 07:28:35;;;;;;;6.25;2.53;;;25.60;86.00;;;;;;5051062;28;20260;-53
2022/05/12 07:31:05;;;;;;;2.92;2.00;;;25.70;86.50;;;;;;5051813;28;20198;-54
2022/05/12 07:33:39;;;;;;;4.13;2.03;;;25.70;84.80;;;;;;5050890;28;20216;-53
2022/05/12 07:36:11;;;;;;;3.72;1.92;;;25.60;81.50;;;;;;5052749;28;20259;-52
2022/05/12 07:38:42;;;;;;;4.38;2.00;;;25.80;82.30;;;;;;5059064;28;20261;-53
2022/05/12 07:41:12;;;;;;;3.58;2.00;;;25.80;82.20;;;;;;5052651;28;20291;-53
2022/05/12 07:43:41;;;;;;;3.95;2.00;;;25.80;80.90;;;;;;5051945;28;20205;-53
2022/05/12 07:46:11;;;;;;;2.67;1.75;;;26.00;81.70;;;;;;5052152;28;20205;-54
2022/05/12 07:48:39;;;;;;;4.85;2.00;;;25.80;79.50;;;;;;5052858;28;20658;-53
2022/05/12 07:51:08;;;;;;;4.38;2.05;;;25.90;80.10;;;;;;5071254;28;20225;-53
2022/05/12 07:53:37;;;;;;;3.67;2.10;;;25.80;81.90;;;;;;5071801;28;20216;-52
2022/05/12 07:56:08;;;;;;;4.15;2.33;;;25.90;80.40;;;;;;5072095;28;20266;-52
2022/05/12 07:58:36;;;;;;;4.20;2.00;;;25.80;78.00;;;;;;5071861;28;20256;-52
2022/05/12 08:01:05;;;;;;;3.55;2.00;;;25.70;77.60;;;;;;5071697;28;20253;-53
2022/05/12 08:03:34;;;;;;;3.35;2.15;;;25.30;79.00;;;;;;5071336;28;20631;-54
2022/05/12 08:06:03;;;;;;;4.70;1.80;;;24.80;79.80;;;;;;5071529;28;20765;-52
2022/05/12 08:08:31;;;;;;;4.00;2.10;;;24.50;83.30;;;;;;5071368;28;20255;-53
2022/05/12 08:10:59;;;;;;;5.57;2.22;;;24.30;81.00;;;;;;5071956;28;20686;-53
2022/05/12 08:13:29;;;;;;;3.38;1.88;;;24.10;79.60;;;;;;5071316;28;20259;-53
2022/05/12 08:15:57;;;;;;;3.28;1.80;;;23.70;81.70;;;;;;5072084;28;20201;-52
2022/05/12 08:18:27;;;;;;;4.50;1.98;;;23.60;81.50;;;;;;5071697;28;20225;-51
2022/05/12 08:20:55;;;;;;;5.13;2.10;;;23.70;81.90;;;;;;5071501;28;20263;-53
2022/05/12 08:23:23;;;;;;;3.45;1.88;;;23.70;81.80;;;;;;5070826;28;20298;-53
2022/05/12 08:25:52;;;;;;;5.18;2.17;;;23.60;80.10;;;;;;5070751;28;20212;-51
2022/05/12 08:28:27;;;;;;;3.55;1.70;;;23.60;81.30;;;;;;5071602;28;20220;-53
2022/05/12 08:30:57;;;;;;;4.00;1.95;;;23.70;83.90;;;;;;5071498;28;20201;-52
2022/05/12 08:33:25;;;;;;;4.30;2.10;;;23.60;80.80;;;;;;5070073;28;20232;-53
2022/05/12 08:35:53;;;;;;;3.17;1.80;;;23.50;83.30;;;;;;5071614;28;20201;-53
2022/05/12 08:38:23;;;;;;;4.47;1.50;;;23.60;84.10;;;;;;5071473;28;20647;-53
2022/05/12 08:41:02;;;;;;;4.65;1.60;;;23.40;78.50;;;;;;5071478;28;20224;-53
2022/05/12 08:43:36;;;;;;;3.60;1.92;;;23.30;77.70;;;;;;5070844;28;20299;-53
2022/05/12 08:46:10;;;;;;;2.50;1.80;;;23.20;80.20;;;;;;5071549;28;20189;-52
2022/05/12 08:48:40;;;;;;;5.00;2.03;;;23.00;80.20;;;;;;5071419;28;20252;-53
2022/05/12 08:51:12;;;;;;;3.08;2.00;;;22.90;78.80;;;;;;5071797;28;20221;-52
2022/05/12 08:53:46;;;;;;;3.40;2.30;;;23.10;83.10;;;;;;5070420;28;20677;-52
2022/05/12 08:56:15;;;;;;;2.90;1.92;;;23.10;80.00;;;;;;5071584;28;20262;-53
2022/05/12 08:58:43;;;;;;;4.38;1.90;;;23.20;81.50;;;;;;5071390;28;20229;-52
2022/05/12 09:01:20;;;;;;;3.97;2.00;;;23.10;79.30;;;;;;5071462;28;20281;-52
2022/05/12 09:04:02;;;;;;;3.83;2.00;;;23.30;79.10;;;;;;5070946;28;20236;-52
2022/05/12 09:06:36;;;;;;;4.68;2.15;;;23.00;82.50;;;;;;5071072;28;20258;-52
2022/05/12 09:09:15;;;;;;;3.83;2.10;;;23.30;80.60;;;;;;5071300;28;20716;-53
2022/05/12 09:11:50;;;;;;;3.40;1.90;;;23.30;82.70;;;;;;5071712;28;20251;-52
2022/05/12 09:14:25;;;;;;;3.28;1.77;;;23.30;78.40;;;;;;5071163;28;20208;-53
2022/05/12 09:16:56;;;;;;;3.95;2.10;;;23.30;77.80;;;;;;5054741;28;20224;-53
2022/05/12 09:19:26;;;;;;;6.13;2.08;;;23.20;80.40;;;;;;5051493;28;20229;-53
2022/05/12 09:21:55;;;;;;;4.60;2.05;;;23.30;80.20;;;;;;5050732;28;20275;-53
2022/05/12 09:24:23;;;;;;;4.47;2.00;;;23.40;81.50;;;;;;5051270;28;20209;-53
2022/05/12 09:27:06;;;;;;;3.75;1.90;;;23.10;80.40;;;;;;5051545;28;20201;-52
2022/05/12 09:29:44;;;;;;;4.25;2.10;;;22.70;78.10;;;;;;5051110;28;20279;-53
2022/05/12 09:32:24;;;;;;;4.55;2.17;;;22.50;76.60;;;;;;5051043;28;20222;-52
2022/05/12 09:35:20;;;;;;;3.92;2.00;;;22.70;84.80;;;;;;5050380;28;20205;-53
2022/05/12 09:37:49;;;;;;;2.97;1.85;;;22.80;80.90;;;;;;5051440;28;20233;-52
2022/05/12 09:40:21;;;;;;;4.15;1.98;;;22.90;79.80;;;;;;5051538;28;20248;-53
2022/05/12 09:42:52;;;;;;;4.57;2.00;;;23.10;78.80;;;;;;5051092;28;20233;-51
2022/05/12 09:45:24;;;;;;;2.13;1.70;;;22.70;75.70;;;;;;5051491;28;20601;-52
2022/05/12 09:48:17;;;;;;;5.63;1.80;;;22.40;76.30;;;;;;5051143;28;20797;-52
2022/05/12 09:50:45;;;;;;;5.88;2.13;;;22.40;77.60;;;;;;5067565;28;20235;-52
2022/05/12 09:53:14;;;;;;;3.35;1.90;;;22.30;79.50;;;;;;5055928;28;20233;-52
2022/05/12 09:55:56;;;;;;;3.88;2.20;;;22.10;78.50;;;;;;5051012;28;20260;-52
2022/05/12 09:58:33;;;;;;;1.90;1.70;;;22.10;79.60;;;;;;5050700;28;20257;-53
2022/05/12 10:01:13;;;;;;;4.65;2.28;;;22.50;84.20;;;;;;5060514;28;20660;-52
2022/05/12 10:09:19;;;;;;;4.93;2.17;;;22.90;81.30;;;;;;5074003;28;20217;-52
2022/05/12 10:11:53;;;;;;;3.70;2.30;;;22.70;80.80;;;;;;5073458;28;20235;-52
2022/05/12 10:14:34;;;;;;;3.08;1.90;;;22.40;80.30;;;;;;5073352;28;20646;-52
2022/05/12 10:17:07;;;;;;;5.80;2.50;;;22.60;82.80;;;;;;5073724;28;20276;-52
2022/05/12 10:19:38;;;;;;;5.03;2.70;;;23.00;84.80;;;;;;5074110;28;20586;-51
2022/05/12 10:22:13;;;;;;;2.88;2.00;;;23.10;84.30;;;;;;5073064;28;20216;-52
2022/05/12 10:24:57;;;;;;;5.28;2.13;;;23.30;81.10;;;;;;5074136;28;20208;-52
2022/05/12 10:27:36;;;;;;;6.75;2.08;;;23.20;81.70;;;;;;5074063;28;20190;-52
2022/05/12 10:30:27;;;;;;;2.42;1.83;;;23.10;79.10;;;;;;5071055;28;20258;-53
2022/05/12 10:33:09;;;;;;;3.58;1.88;;;23.00;82.40;;;;;;5053053;28;20218;-52
2022/05/12 10:35:44;;;;;;;3.75;2.20;;;23.10;83.30;;;;;;5054031;28;20193;-53
2022/05/12 10:38:27;;;;;;;3.80;2.10;;;22.70;81.60;;;;;;5053476;28;20233;-52
2022/05/12 10:40:58;;;;;;;4.30;1.85;;;22.50;78.80;;;;;;5053102;28;20256;-53
2022/05/12 10:43:57;;;;;;;3.25;1.83;;;22.30;79.70;;;;;;5053038;28;20197;-53
2022/05/12 10:46:35;;;;;;;3.55;1.92;;;22.10;78.80;;;;;;5053646;28;20267;-52
2022/05/12 10:49:13;;;;;;;3.28;2.00;;;22.10;82.70;;;;;;5055152;28;20229;-52
2022/05/12 10:51:49;;;;;;;6.00;2.20;;;22.40;83.60;;;;;;5073801;28;20220;-52
2022/05/12 10:54:26;;;;;;;3.25;1.98;;;22.50;83.10;;;;;;5073019;28;20236;-53
2022/05/12 10:57:09;;;;;;;2.85;2.05;;;22.70;85.10;;;;;;5073005;28;20231;-53
2022/05/12 11:00:09;;;;;;;3.85;1.80;;;22.60;81.90;;;;;;5072884;28;20278;-53
2022/05/12 11:02:41;;;;;;;2.72;1.80;;;22.40;78.10;;;;;;5072904;28;20264;-53
2022/05/12 11:05:26;;;;;;;3.53;2.10;;;22.20;79.20;;;;;;5081132;28;20254;-53
2022/05/12 11:08:04;;;;;;;4.47;2.38;;;22.40;83.30;;;;;;5093754;28;20277;-52
2022/05/12 11:10:39;;;;;;;3.95;1.80;;;22.60;82.10;;;;;;5075636;28;20197;-53
2022/05/12 11:13:12;;;;;;;2.60;1.75;;;22.80;83.10;;;;;;5072979;28;20204;-52
2022/05/12 11:15:50;;;;;;;2.85;1.75;;;22.70;80.40;;;;;;5074058;28;20254;-53
2022/05/12 11:18:25;;;;;;;3.63;1.67;;;22.80;82.80;;;;;;5073106;28;20246;-53
2022/05/12 11:21:02;;;;;;;3.78;1.85;;;22.90;81.90;;;;;;5066220;28;20201;-53
2022/05/12 11:24:00;;;;;;;2.80;1.50;;;23.00;82.00;;;;;;5052592;28;20197;-52
2022/05/12 11:26:50;;;;;;;4.43;1.60;;;23.00;82.70;;;;;;5053283;28;20271;-53
2022/05/12 11:32:21;;;;;;;2.17;1.48;;;22.80;83.10;;;;;;5053033;28;20230;-53
2022/05/12 11:34:54;;;;;;;3.08;1.60;;;23.00;81.70;;;;;;5052814;28;20202;-53
2022/05/12 11:37:49;;;;;;;3.70;1.92;;;22.60;80.20;;;;;;5053002;28;20241;-52
2022/05/12 11:40:54;;;;;;;5.28;1.80;;;22.50;82.10;;;;;;5053087;28;20210;-52
2022/05/12 11:46:52;;;;;;;3.20;1.85;;;22.50;82.40;;;;;;5051805;28;20205;-53
2022/05/12 11:49:46;;;;;;;4.65;2.13;;;22.40;85.80;;;;;;5057054;28;20278;-53
2022/05/12 11:52:27;;;;;;;4.15;2.00;;;22.40;83.50;;;;;;5069644;28;20266;-53
2022/05/12 11:54:58;;;;;;;3.90;2.10;;;22.50;83.20;;;;;;5072066;28;20212;-53
2022/05/12 11:57:32;;;;;;;3.58;1.83;;;22.40;79.80;;;;;;5071284;28;20248;-53
2022/05/12 12:00:01;;;;;;;3.97;2.05;;;22.40;83.70;;;;;;5071508;28;20204;-53
2022/05/12 12:02:48;;;;;;;4.05;1.83;;;22.50;82.40;;;;;;5070951;28;20320;-51
2022/05/12 12:05:50;;;;;;;2.15;1.80;;;22.70;81.90;;;;;;5071739;28;20259;-53
2022/05/12 12:08:41;;;;;;;6.85;1.77;;;22.50;81.50;;;;;;5071141;28;20659;-52
2022/05/12 12:11:25;;;;;;;3.30;1.48;;;22.20;80.30;;;;;;5052631;28;20206;-53
2022/05/12 12:13:56;;;;;;;2.45;1.70;;;22.20;80.80;;;;;;5052163;28;20205;-52
2022/05/12 12:16:27;;;;;;;2.70;1.70;;;22.30;82.80;;;;;;5050861;28;20255;-53
2022/05/12 12:18:58;;;;;;;4.03;1.90;;;22.40;80.10;;;;;;5051494;28;20239;-53
2022/05/12 12:22:00;;;;;;;3.15;1.83;;;22.50;82.80;;;;;;5050857;28;20210;-53
2022/05/12 12:25:05;;;;;;;2.75;1.65;;;22.60;83.70;;;;;;5050542;28;20201;-52
2022/05/12 12:27:59;;;;;;;3.25;1.42;;;22.70;82.70;;;;;;5051191;28;20693;-52
2022/05/12 12:30:39;;;;;;;2.35;1.45;;;22.60;81.20;;;;;;5050900;28;20265;-52
2022/05/12 12:33:14;;;;;;;4.00;1.60;;;22.70;81.50;;;;;;5050379;28;20236;-52
2022/05/12 12:36:00;;;;;;;2.97;1.73;;;22.60;78.50;;;;;;5051061;28;20217;-52
2022/05/12 12:39:07;;;;;;;2.65;1.42;;;22.50;79.10;;;;;;5051457;28;20269;-52
2022/05/12 12:41:45;;;;;;;4.00;2.10;;;22.70;80.60;;;;;;5050466;28;20263;-52
2022/05/12 12:44:20;;;;;;;3.28;1.83;;;22.60;81.80;;;;;;5049874;28;20205;-52
2022/05/12 12:46:57;;;;;;;3.15;1.83;;;22.70;81.60;;;;;;5051007;28;20247;-52
2022/05/12 12:49:29;;;;;;;5.28;1.80;;;22.70;82.70;;;;;;5056621;28;20251;-52
2022/05/12 12:51:59;;;;;;;5.38;1.75;;;22.80;81.70;;;;;;5070905;28;20335;-54
2022/05/12 12:57:24;;;;;;;3.97;1.60;;;22.90;87.30;;;;;;5071313;28;20211;-51
2022/05/12 12:59:58;;;;;;;2.63;1.70;;;22.80;84.60;;;;;;5066404;28;20212;-54
2022/05/12 13:02:32;;;;;;;2.20;1.60;;;22.80;84.40;;;;;;5056056;28;20715;-52
2022/05/12 13:05:06;;;;;;;4.60;2.20;;;22.70;82.30;;;;;;5089075;28;20676;-53
2022/05/12 13:07:36;;;;;;;2.05;1.63;;;22.60;85.00;;;;;;5064093;28;20232;-52
2022/05/12 13:10:08;;;;;;;2.72;1.50;;;22.70;82.80;;;;;;5063975;28;20200;-53
2022/05/12 13:12:36;;;;;;;2.60;1.52;;;22.80;82.80;;;;;;5061709;28;20214;-53
2022/05/12 13:15:16;;;;;;;2.78;1.67;;;22.80;79.50;;;;;;5052258;28;20269;-53
2022/05/12 13:17:50;;;;;;;2.40;1.55;;;22.80;80.30;;;;;;5071322;28;20662;-52
2022/05/12 13:20:41;;;;;;;5.30;1.77;;;22.90;80.30;;;;;;5065475;28;20698;-52
2022/05/12 13:23:11;;;;;;;3.38;2.00;;;23.00;81.30;;;;;;5050995;28;20670;-53
2022/05/12 13:25:41;;;;;;;4.45;1.80;;;23.00;82.30;;;;;;5050846;28;20286;-53
2022/05/12 13:28:15;;;;;;;4.90;1.75;;;23.10;83.30;;;;;;5051076;28;20226;-52
2022/05/12 13:30:45;;;;;;;4.15;1.90;;;23.10;83.10;;;;;;5050775;28;20354;-53
2022/05/12 13:33:24;;;;;;;6.72;1.85;;;23.20;80.10;;;;;;5053629;28;20231;-52
2022/05/12 13:35:56;;;;;;;2.42;1.60;;;23.10;81.60;;;;;;5061545;28;20228;-52
2022/05/12 13:38:28;;;;;;;4.32;2.17;;;22.80;78.40;;;;;;5074317;28;20611;-52